Погода Кхиксашна 2 недели

Окаванго, Намибия

05 - 18 марта
  • 05марта
    Сегодня
    +16°
    +35°
    Ясно и безоблачно
    ВремяПогодаТемператураВлажностьДавлениеВетер, м/сВероятность осадков
    02:00Ясно и безоблачно+20°C50 %675 мм2.0 м/с5 %
    05:00Ясно и безоблачно+18°C59 %674 мм0.8 м/с5 %
    08:00Ясно и безоблачно+19°C53 %675 мм0.5 м/с5 %
    11:00Ясно и безоблачно+27°C22 %677 мм1.5 м/с5 %
    14:00Ясно и безоблачно+33°C15 %677 мм3.1 м/с5 %
    17:00Ясно и безоблачно+33°C14 %676 мм7.0 м/с5 %
    20:00Ясно и безоблачно+27°C30 %676 мм6.1 м/с5 %
    23:00Ясно и безоблачно+22°C42 %676 мм2.1 м/с5 %
  • 06марта
    Среда
    +18°
    +36°
    Ясно и безоблачно
    ВремяПогодаТемператураВлажностьДавлениеВетер, м/сВероятность осадков
    02:00Ясно и безоблачно+19°C53 %675 мм0.8 м/с5 %
    05:00Ясно и безоблачно+18°C55 %674 мм1.0 м/с5 %
    08:00Ясно и безоблачно+19°C47 %675 мм1.4 м/с5 %
    11:00Ясно и безоблачно+28°C18 %677 мм2.1 м/с5 %
    14:00Ясно и безоблачно+34°C10 %677 мм4.8 м/с5 %
    17:00Ясно и безоблачно+35°C9 %676 мм7.4 м/с5 %
    20:00Ясно и безоблачно+27°C24 %677 мм6.1 м/с5 %
    23:00Ясно и безоблачно+22°C38 %677 мм3.0 м/с5 %
  • 07марта
    Четверг
    +17°
    +37°
    Ясно и безоблачно
    ВремяПогодаТемператураВлажностьДавлениеВетер, м/сВероятность осадков
    02:00Ясно и безоблачно+19°C40 %676 мм0.6 м/с5 %
    05:00Ясно и безоблачно+20°C26 %675 мм0.3 м/с5 %
    08:00Ясно и безоблачно+19°C25 %676 мм0.9 м/с5 %
    11:00Ясно и безоблачно+29°C13 %679 мм3.5 м/с5 %
    14:00Ясно и безоблачно+35°C14 %677 мм4.5 м/с5 %
    17:00Ясно и безоблачно+36°C11 %676 мм6.9 м/с5 %
    20:00Ясно и безоблачно+28°C25 %676 мм6.3 м/с5 %
    23:00Ясно и безоблачно+22°C25 %677 мм3.4 м/с5 %
  • 08марта
    Пятница
    +22°
    +39°
    Ясно и безоблачно
    ВремяПогодаТемператураВлажностьДавлениеВетер, м/сВероятность осадков
    02:00Ясно и безоблачно+20°C31 %675 мм2.9 м/с5 %
    05:00Ясно и безоблачно+18°C40 %674 мм2.9 м/с5 %
    08:00Ясно и безоблачно+19°C39 %675 мм0.9 м/с5 %
    11:00Ясно и безоблачно+30°C19 %677 мм2.7 м/с5 %
    14:00Ясно и безоблачно+37°C12 %676 мм3.6 м/с5 %
    17:00Ясно и безоблачно+39°C11 %675 мм6.7 м/с5 %
    20:00Ясно и безоблачно+31°C18 %675 мм6.0 м/с5 %
    23:00Практически безоблачно+26°C23 %677 мм3.7 м/с5 %
  • 09марта
    Суббота
    +22°
    +40°
    Практически безоблачно
    ВремяПогодаТемператураВлажностьДавлениеВетер, м/сВероятность осадков
    02:00Небольшая облачность+24°C28 %676 мм1.5 м/с6 %
    05:00Ясно и безоблачно+23°C33 %675 мм0.8 м/с5 %
    08:00Практически безоблачно+24°C31 %676 мм2.1 м/с4 %
    11:00Ясно и безоблачно+33°C30 %678 мм2.3 м/с4 %
    14:00Практически безоблачно+39°C23 %677 мм1.1 м/с4 %
    17:00Небольшая облачность, возможен дождь с грозой+34°C37 %677 мм1.6 м/с19 %
    20:00Облачно с прояснениями+31°C44 %677 мм3.1 м/с26 %
    23:00Облачно с прояснениями+27°C47 %677 мм2.0 м/с29 %
Мы используем cookies
Соглашаюсь